createdAt,value
2023-01-20T00:01:33.308Z,-0.23
2023-01-20T00:03:59.721Z,-0.25
2023-01-20T00:06:30.097Z,-0.25
2023-01-20T00:09:00.342Z,-0.29
2023-01-20T00:11:27.837Z,-0.32
2023-01-20T00:13:59.333Z,-0.32
2023-01-20T00:16:26.018Z,-0.35
2023-01-20T00:18:53.505Z,-0.35
2023-01-20T00:21:19.945Z,-0.37
2023-01-20T00:23:47.951Z,-0.35
2023-01-20T00:26:16.931Z,-0.35
2023-01-20T00:28:44.449Z,-0.37
2023-01-20T00:31:18.578Z,-0.37
2023-01-20T00:33:46.795Z,-0.32
2023-01-20T00:36:14.111Z,-0.31
2023-01-20T00:38:40.764Z,-0.25
2023-01-20T00:41:08.073Z,-0.23
2023-01-20T00:43:34.673Z,-0.25
2023-01-20T00:46:01.216Z,-0.25
2023-01-20T00:48:27.549Z,-0.28
2023-01-20T00:50:53.961Z,-0.29
2023-01-20T00:53:20.417Z,-0.28
2023-01-20T00:55:46.774Z,-0.28
2023-01-20T00:58:13.337Z,-0.25
2023-01-20T01:00:40.219Z,-0.22
2023-01-20T01:03:06.871Z,-0.17
2023-01-20T01:05:33.392Z,-0.13
2023-01-20T01:07:59.769Z,-0.12
2023-01-20T01:10:26.158Z,-0.10
2023-01-20T01:12:52.528Z,-0.10
2023-01-20T01:15:18.965Z,-0.10
2023-01-20T01:17:45.503Z,-0.12
2023-01-20T01:20:13.589Z,-0.12
2023-01-20T01:22:40.728Z,-0.14
2023-01-20T01:25:07.521Z,-0.16
2023-01-20T01:27:33.950Z,-0.16
2023-01-20T01:30:00.300Z,-0.10
2023-01-20T01:32:27.218Z,-0.04
2023-01-20T01:34:53.563Z,-0.01
2023-01-20T01:37:19.886Z,0.03
2023-01-20T01:39:46.229Z,0.07
2023-01-20T01:42:14.029Z,0.08
2023-01-20T01:45:12.625Z,0.11
2023-01-20T01:48:01.001Z,0.15
2023-01-20T01:50:30.168Z,0.17
2023-01-20T01:52:57.093Z,0.18
2023-01-20T01:55:28.259Z,0.19
2023-01-20T01:57:56.597Z,0.20
2023-01-20T02:00:23.045Z,0.22
2023-01-20T02:02:50.170Z,0.22
2023-01-20T02:05:18.180Z,0.23
2023-01-20T02:07:47.526Z,0.24
2023-01-20T02:10:15.493Z,0.24
2023-01-20T02:12:44.386Z,0.23
2023-01-20T02:15:11.067Z,0.23
2023-01-20T02:17:55.660Z,0.24
2023-01-20T02:20:57.492Z,0.27
2023-01-20T02:23:53.410Z,0.23
2023-01-20T02:26:54.801Z,0.24
2023-01-20T02:29:29.957Z,0.23
2023-01-20T02:32:08.165Z,0.25
2023-01-20T02:34:52.628Z,0.24
2023-01-20T02:37:23.607Z,0.23
2023-01-20T02:40:00.471Z,0.25
2023-01-20T02:42:37.849Z,0.22
2023-01-20T02:45:26.087Z,0.23
2023-01-20T02:48:10.890Z,0.22
2023-01-20T02:50:48.565Z,0.21
2023-01-20T02:53:17.614Z,0.22
2023-01-20T02:55:47.528Z,0.20
2023-01-20T02:58:23.937Z,0.22
2023-01-20T03:00:58.445Z,0.22
2023-01-20T03:03:32.058Z,0.24
2023-01-20T03:06:02.127Z,0.24
2023-01-20T03:08:31.517Z,0.25
2023-01-20T03:11:05.896Z,0.23
2023-01-20T03:13:44.526Z,0.24
2023-01-20T03:16:15.725Z,0.25
2023-01-20T03:18:42.078Z,0.24
2023-01-20T03:21:10.271Z,0.23
2023-01-20T03:23:46.231Z,0.22
2023-01-20T03:26:14.880Z,0.21
2023-01-20T03:28:42.569Z,0.23
2023-01-20T03:31:22.720Z,0.20
2023-01-20T03:33:51.993Z,0.20
2023-01-20T03:36:20.820Z,0.21
2023-01-20T03:38:47.913Z,0.21
2023-01-20T03:41:38.672Z,0.19
2023-01-20T03:44:38.961Z,0.18
2023-01-20T03:47:23.985Z,0.17
2023-01-20T03:50:15.772Z,0.16
2023-01-20T03:52:51.789Z,0.16
2023-01-20T03:55:23.577Z,0.16
2023-01-20T03:58:12.603Z,0.15
2023-01-20T04:00:49.371Z,0.16
2023-01-20T04:03:38.727Z,0.16
2023-01-20T04:06:08.300Z,0.17
2023-01-20T04:08:37.350Z,0.16
2023-01-20T04:11:06.330Z,0.16
2023-01-20T04:13:33.319Z,0.18
2023-01-20T04:16:01.779Z,0.16
2023-01-20T04:18:28.163Z,0.16
2023-01-20T04:21:04.079Z,0.15
2023-01-20T04:23:40.733Z,0.14
2023-01-20T04:26:07.058Z,0.12
2023-01-20T04:28:33.364Z,0.11
2023-01-20T04:30:59.843Z,0.09
2023-01-20T04:33:26.505Z,0.08
2023-01-20T04:35:52.821Z,0.08
2023-01-20T04:38:19.232Z,0.08
2023-01-20T04:40:45.589Z,0.07
2023-01-20T04:43:12.316Z,0.07
2023-01-20T04:45:40.862Z,0.06
2023-01-20T04:48:08.535Z,0.05
2023-01-20T04:50:41.639Z,0.04
2023-01-20T04:53:13.315Z,0.03
2023-01-20T04:55:39.659Z,0.01
2023-01-20T04:58:05.970Z,0.00
2023-01-20T05:00:32.311Z,-0.01
2023-01-20T05:02:59.020Z,-0.02
2023-01-20T05:05:25.431Z,0.01
2023-01-20T05:07:54.034Z,0.00
2023-01-20T05:10:21.145Z,-0.02
2023-01-20T05:12:47.564Z,-0.03
2023-01-20T05:15:14.180Z,-0.02
2023-01-20T05:17:40.855Z,-0.01
2023-01-20T05:20:07.857Z,-0.01
2023-01-20T05:22:34.262Z,-0.02
2023-01-20T05:25:00.701Z,-0.02
2023-01-20T05:27:27.038Z,-0.02
2023-01-20T05:29:53.413Z,-0.02
2023-01-20T05:32:19.743Z,0.01
2023-01-20T05:34:46.052Z,0.00
2023-01-20T05:37:12.389Z,0.02
2023-01-20T05:39:38.789Z,0.00
2023-01-20T05:42:05.241Z,0.01
2023-01-20T05:44:31.658Z,-0.01
2023-01-20T05:46:57.974Z,0.00
2023-01-20T05:49:24.281Z,0.01
2023-01-20T05:51:50.668Z,0.01
2023-01-20T05:54:17.000Z,0.03
2023-01-20T05:56:43.353Z,0.04
2023-01-20T05:59:09.824Z,0.05
2023-01-20T06:01:36.435Z,0.06
2023-01-20T06:04:02.882Z,0.06
2023-01-20T06:06:29.268Z,0.07
2023-01-20T06:08:55.602Z,0.06
2023-01-20T06:11:22.138Z,0.05
2023-01-20T06:13:48.899Z,0.07
2023-01-20T06:16:17.864Z,0.06
2023-01-20T06:18:44.229Z,0.05
2023-01-20T06:21:10.994Z,0.06
2023-01-20T06:23:37.428Z,0.04
2023-01-20T06:26:09.095Z,0.02
2023-01-20T06:28:35.774Z,0.03
2023-01-20T06:31:07.136Z,0.02
2023-01-20T06:33:34.231Z,0.01
2023-01-20T06:36:01.439Z,0.02
2023-01-20T06:38:33.062Z,0.01
2023-01-20T06:41:04.882Z,-0.01
2023-01-20T06:43:33.918Z,-0.02
2023-01-20T06:46:02.397Z,-0.03
2023-01-20T06:48:29.267Z,-0.03
2023-01-20T06:51:03.389Z,-0.06
2023-01-20T06:53:29.978Z,-0.07
2023-01-20T06:55:57.859Z,-0.07
2023-01-20T06:58:25.665Z,-0.08
2023-01-20T07:00:53.104Z,-0.09
2023-01-20T07:03:19.687Z,-0.09
2023-01-20T07:05:58.426Z,-0.08
2023-01-20T07:08:24.785Z,-0.11
2023-01-20T07:10:51.118Z,-0.12
2023-01-20T07:13:17.559Z,-0.12
2023-01-20T07:15:44.186Z,-0.13
2023-01-20T07:18:10.533Z,-0.13
2023-01-20T07:20:38.653Z,-0.14
2023-01-20T07:23:05.660Z,-0.15
2023-01-20T07:25:32.056Z,-0.14
2023-01-20T07:27:58.552Z,-0.15
2023-01-20T07:30:26.620Z,-0.14
2023-01-20T07:32:53.747Z,-0.13
2023-01-20T07:35:20.163Z,-0.15
2023-01-20T07:37:46.494Z,-0.13
2023-01-20T07:40:13.139Z,-0.13
2023-01-20T07:42:39.786Z,-0.11
2023-01-20T07:45:06.750Z,-0.12
2023-01-20T07:47:33.071Z,-0.11
2023-01-20T07:49:59.424Z,-0.10
2023-01-20T07:52:25.759Z,-0.10
2023-01-20T07:54:52.142Z,-0.09
2023-01-20T07:57:18.613Z,-0.09
2023-01-20T07:59:44.912Z,-0.09
2023-01-20T08:02:11.229Z,-0.07
2023-01-20T08:04:37.637Z,-0.05
2023-01-20T08:07:03.995Z,-0.04
2023-01-20T08:09:30.351Z,-0.02
2023-01-20T08:11:56.766Z,-0.01
2023-01-20T08:14:23.159Z,0.02
2023-01-20T08:16:49.663Z,0.03
2023-01-20T08:19:16.105Z,0.05
2023-01-20T08:21:42.477Z,0.06
2023-01-20T08:24:10.133Z,0.08
2023-01-20T08:26:36.735Z,0.07
2023-01-20T08:29:09.632Z,0.10
2023-01-20T08:31:37.283Z,0.12
2023-01-20T08:34:04.171Z,0.13
2023-01-20T08:36:33.967Z,0.14
2023-01-20T08:39:04.661Z,0.15
2023-01-20T08:41:34.963Z,0.16
2023-01-20T08:44:04.347Z,0.15
2023-01-20T08:46:31.585Z,0.18
2023-01-20T08:48:58.825Z,0.19
2023-01-20T08:51:31.152Z,0.20
2023-01-20T08:53:57.957Z,0.21
2023-01-20T08:56:24.343Z,0.21
2023-01-20T08:58:51.139Z,0.23
2023-01-20T09:01:20.592Z,0.26
2023-01-20T09:04:03.459Z,0.26
2023-01-20T09:06:36.591Z,0.28
2023-01-20T09:09:04.579Z,0.29
2023-01-20T09:11:31.173Z,0.31
2023-01-20T09:13:57.729Z,0.31
2023-01-20T09:16:24.190Z,0.31
2023-01-20T09:18:50.576Z,0.32
2023-01-20T09:21:17.001Z,0.33
2023-01-20T09:23:43.344Z,0.34
2023-01-20T09:26:10.087Z,0.34
2023-01-20T09:28:36.469Z,0.33
2023-01-20T09:31:06.573Z,0.34
2023-01-20T09:33:36.138Z,0.33
2023-01-20T09:36:03.476Z,0.32
2023-01-20T09:38:48.810Z,0.32
2023-01-20T09:41:45.280Z,0.31
2023-01-20T09:44:17.592Z,0.31
2023-01-20T09:47:21.037Z,0.30
2023-01-20T09:50:49.800Z,0.30
2023-01-20T09:53:32.939Z,0.30
2023-01-20T09:56:22.292Z,0.31
2023-01-20T09:59:17.779Z,0.33
2023-01-20T10:01:55.322Z,0.33
2023-01-20T10:04:30.877Z,0.34
2023-01-20T10:07:12.401Z,0.34
2023-01-20T10:09:49.445Z,0.33
2023-01-20T10:12:22.849Z,0.34
2023-01-20T10:15:12.542Z,0.31
2023-01-20T10:17:54.097Z,0.31
2023-01-20T10:20:39.119Z,0.30
2023-01-20T10:23:13.928Z,0.31
2023-01-20T10:26:11.643Z,0.30
2023-01-20T10:28:43.189Z,0.28
2023-01-20T10:31:12.947Z,0.27
2023-01-20T10:33:44.826Z,0.28
2023-01-20T10:36:31.356Z,0.31
2023-01-20T10:39:10.744Z,0.33
2023-01-20T10:41:51.505Z,0.34
2023-01-20T10:44:18.121Z,0.36
2023-01-20T10:46:54.727Z,0.38
2023-01-20T10:49:49.448Z,0.41
2023-01-20T10:52:37.653Z,0.41
2023-01-20T10:55:16.375Z,0.42
2023-01-20T10:57:42.889Z,0.42
2023-01-20T11:00:31.464Z,0.41
2023-01-20T11:03:01.431Z,0.40
2023-01-20T11:05:30.591Z,0.43
2023-01-20T11:07:59.253Z,0.42
2023-01-20T11:10:29.046Z,0.44
2023-01-20T11:12:59.488Z,0.43
2023-01-20T11:15:43.908Z,0.42
2023-01-20T11:18:21.879Z,0.40
2023-01-20T11:20:52.687Z,0.36
2023-01-20T11:23:34.171Z,0.35
2023-01-20T11:26:13.474Z,0.35
2023-01-20T11:28:58.671Z,0.35
2023-01-20T11:31:42.217Z,0.33
2023-01-20T11:34:28.202Z,0.36
2023-01-20T11:37:19.817Z,0.38
2023-01-20T11:39:49.871Z,0.43
2023-01-20T11:42:17.995Z,0.47
2023-01-20T11:45:21.617Z,0.52
2023-01-20T11:48:04.796Z,0.62
2023-01-20T11:50:38.717Z,0.69
2023-01-20T11:53:25.389Z,0.80
2023-01-20T11:55:58.871Z,0.87
2023-01-20T11:58:28.306Z,0.95
2023-01-20T12:01:02.587Z,1.05
2023-01-20T12:03:47.924Z,1.17
2023-01-20T12:06:30.897Z,1.24
2023-01-20T12:09:05.972Z,1.30
2023-01-20T12:11:45.105Z,1.32
2023-01-20T12:14:20.461Z,1.26
2023-01-20T12:16:57.744Z,1.23
2023-01-20T12:19:33.807Z,1.19
2023-01-20T12:22:04.892Z,1.18
2023-01-20T12:25:04.625Z,1.19
2023-01-20T12:27:32.996Z,1.17
2023-01-20T12:30:04.357Z,1.17
2023-01-20T12:32:33.115Z,1.15
2023-01-20T12:35:00.223Z,1.16
2023-01-20T12:37:55.783Z,1.16
2023-01-20T12:40:46.344Z,1.13
2023-01-20T12:43:32.141Z,1.10
2023-01-20T12:46:33.275Z,1.09
2023-01-20T12:49:38.003Z,1.09
2023-01-20T12:52:51.947Z,1.09
2023-01-20T12:55:37.129Z,1.08
2023-01-20T12:58:25.582Z,1.09
2023-01-20T13:01:04.336Z,1.09
2023-01-20T13:03:45.177Z,1.10
2023-01-20T13:06:29.866Z,1.09
2023-01-20T13:09:12.457Z,1.11
2023-01-20T13:12:00.414Z,1.10
2023-01-20T13:14:47.251Z,1.11
2023-01-20T13:17:37.179Z,1.11
2023-01-20T13:20:14.592Z,1.12
2023-01-20T13:22:41.337Z,1.14
2023-01-20T13:25:15.375Z,1.13
2023-01-20T13:27:44.115Z,1.15
2023-01-20T13:30:42.817Z,1.14
2023-01-20T13:33:17.340Z,1.16
2023-01-20T13:35:50.608Z,1.13
2023-01-20T13:38:20.732Z,1.15
2023-01-20T13:40:51.124Z,1.15
2023-01-20T13:43:20.241Z,1.14
2023-01-20T13:45:46.566Z,1.12
2023-01-20T13:48:12.811Z,1.12
2023-01-20T13:50:43.657Z,1.14
2023-01-20T13:53:09.894Z,1.15
2023-01-20T13:55:45.252Z,1.17
2023-01-20T13:58:25.230Z,1.17
2023-01-20T14:00:54.333Z,1.19
2023-01-20T14:03:23.993Z,1.18
2023-01-20T14:05:55.842Z,1.16
2023-01-20T14:08:24.269Z,1.15
2023-01-20T14:10:51.062Z,1.15
2023-01-20T14:13:23.372Z,1.15
2023-01-20T14:15:52.745Z,1.14
2023-01-20T14:18:22.233Z,1.14
2023-01-20T14:21:20.291Z,1.12
2023-01-20T14:23:47.784Z,1.12
2023-01-20T14:26:21.583Z,1.12
2023-01-20T14:28:53.310Z,1.12
2023-01-20T14:31:33.950Z,1.12
2023-01-20T14:34:22.895Z,1.14
2023-01-20T14:36:50.339Z,1.15
2023-01-20T14:39:25.777Z,1.14
2023-01-20T14:42:02.329Z,1.13
2023-01-20T14:44:33.252Z,1.12
2023-01-20T14:47:02.492Z,1.13
2023-01-20T14:49:34.615Z,1.15
2023-01-20T14:52:01.424Z,1.16
2023-01-20T14:54:29.357Z,1.19
2023-01-20T14:56:56.971Z,1.20
2023-01-20T14:59:24.026Z,1.23
2023-01-20T15:02:02.255Z,1.23
2023-01-20T15:04:36.515Z,1.26
2023-01-20T15:07:03.022Z,1.26
2023-01-20T15:09:32.713Z,1.29
2023-01-20T15:12:32.929Z,1.31
2023-01-20T15:15:23.338Z,1.33
2023-01-20T15:18:11.176Z,1.33
2023-01-20T15:20:41.033Z,1.36
2023-01-20T15:23:17.167Z,1.36
2023-01-20T15:25:43.548Z,1.37
2023-01-20T15:28:27.709Z,1.38
2023-01-20T15:30:57.321Z,1.38
2023-01-20T15:33:25.262Z,1.41
2023-01-20T15:35:54.463Z,1.40
2023-01-20T15:38:21.375Z,1.40
2023-01-20T15:40:47.901Z,1.40
2023-01-20T15:43:16.475Z,1.40
2023-01-20T15:45:43.840Z,1.42
2023-01-20T15:48:20.872Z,1.43
2023-01-20T15:50:48.532Z,1.43
2023-01-20T15:53:15.208Z,1.44
2023-01-20T15:55:48.415Z,1.44
2023-01-20T15:58:22.228Z,1.44
2023-01-20T16:00:48.796Z,1.44
2023-01-20T16:03:15.163Z,1.45
2023-01-20T16:05:41.471Z,1.46
2023-01-20T16:08:15.989Z,1.45
2023-01-20T16:10:42.467Z,1.46
2023-01-20T16:13:10.221Z,1.46
2023-01-20T16:15:38.082Z,1.48
2023-01-20T16:18:04.580Z,1.48
2023-01-20T16:20:31.472Z,1.48
2023-01-20T16:22:57.908Z,1.47
2023-01-20T16:25:24.759Z,1.46
2023-01-20T16:27:51.092Z,1.46
2023-01-20T16:30:19.734Z,1.46
2023-01-20T16:32:46.597Z,1.48
2023-01-20T16:35:14.888Z,1.46
2023-01-20T16:37:42.100Z,1.48
2023-01-20T16:40:26.568Z,1.48
2023-01-20T16:42:54.872Z,1.47
2023-01-20T16:45:25.642Z,1.48
2023-01-20T16:47:52.088Z,1.49
2023-01-20T16:50:18.628Z,1.49
2023-01-20T16:52:45.571Z,1.48
2023-01-20T16:55:13.569Z,1.47
2023-01-20T16:57:40.251Z,1.45
2023-01-20T17:00:07.773Z,1.44
2023-01-20T17:02:34.213Z,1.42
2023-01-20T17:05:00.778Z,1.40
2023-01-20T17:07:27.601Z,1.39
2023-01-20T17:09:54.124Z,1.37
2023-01-20T17:12:20.560Z,1.37
2023-01-20T17:14:46.875Z,1.34
2023-01-20T17:17:13.188Z,1.31
2023-01-20T17:19:39.602Z,1.31
2023-01-20T17:22:06.761Z,1.27
2023-01-20T17:24:33.363Z,1.23
2023-01-20T17:26:59.770Z,1.19
2023-01-20T17:29:26.949Z,1.16
2023-01-20T17:31:53.290Z,1.11
2023-01-20T17:34:19.853Z,1.08
2023-01-20T17:36:48.053Z,1.03
2023-01-20T17:39:14.357Z,0.99
2023-01-20T17:41:40.805Z,0.94
2023-01-20T17:44:07.197Z,0.91
2023-01-20T17:46:33.549Z,0.87
2023-01-20T17:49:01.767Z,0.83
2023-01-20T17:51:29.293Z,0.81
2023-01-20T17:53:57.651Z,0.77
2023-01-20T17:56:24.662Z,0.74
2023-01-20T17:58:51.047Z,0.71
2023-01-20T18:01:27.633Z,0.68
2023-01-20T18:03:55.834Z,0.66
2023-01-20T18:06:23.901Z,0.63
2023-01-20T18:08:56.141Z,0.62
2023-01-20T18:11:23.918Z,0.59
2023-01-20T18:13:52.177Z,0.57
2023-01-20T18:16:20.551Z,0.57
2023-01-20T18:18:48.404Z,0.55
2023-01-20T18:21:28.160Z,0.52
2023-01-20T18:23:55.369Z,0.52
2023-01-20T18:26:23.513Z,0.47
2023-01-20T18:28:53.213Z,0.44
2023-01-20T18:31:21.379Z,0.42
2023-01-20T18:33:54.349Z,0.39
2023-01-20T18:36:23.544Z,0.37
2023-01-20T18:38:51.567Z,0.35
2023-01-20T18:41:18.390Z,0.34
2023-01-20T18:43:44.953Z,0.31
2023-01-20T18:46:11.319Z,0.29
2023-01-20T18:48:39.846Z,0.26
2023-01-20T18:51:09.993Z,0.23
2023-01-20T18:53:36.528Z,0.17
2023-01-20T18:56:05.978Z,0.12
2023-01-20T18:58:33.323Z,0.08
2023-01-20T19:01:10.299Z,0.05
2023-01-20T19:03:38.401Z,0.05
2023-01-20T19:06:05.841Z,0.04
2023-01-20T19:08:32.393Z,0.03
2023-01-20T19:11:03.623Z,0.02
2023-01-20T19:13:30.159Z,0.01
2023-01-20T19:15:56.989Z,-0.02
2023-01-20T19:18:23.396Z,-0.04
2023-01-20T19:20:50.007Z,-0.05
2023-01-20T19:23:16.690Z,-0.05
2023-01-20T19:25:43.017Z,-0.04
2023-01-20T19:28:10.169Z,-0.09
2023-01-20T19:30:38.376Z,-0.11
2023-01-20T19:33:04.722Z,-0.15
2023-01-20T19:35:33.341Z,-0.18
2023-01-20T19:37:59.701Z,-0.18
2023-01-20T19:40:26.017Z,-0.21
2023-01-20T19:42:52.520Z,-0.23
2023-01-20T19:45:19.126Z,-0.27
2023-01-20T19:47:45.476Z,-0.29
2023-01-20T19:50:11.835Z,-0.32
2023-01-20T19:52:38.200Z,-0.35
2023-01-20T19:55:04.819Z,-0.38
2023-01-20T19:57:31.160Z,-0.36
2023-01-20T19:59:57.546Z,-0.35
2023-01-20T20:02:23.917Z,-0.39
2023-01-20T20:04:50.236Z,-0.41
2023-01-20T20:07:16.606Z,-0.42
2023-01-20T20:09:42.948Z,-0.45
2023-01-20T20:12:09.317Z,-0.46
2023-01-20T20:14:35.888Z,-0.50
2023-01-20T20:17:02.365Z,-0.52
2023-01-20T20:19:28.706Z,-0.53
2023-01-20T20:21:56.314Z,-0.52
2023-01-20T20:24:22.630Z,-0.53
2023-01-20T20:26:49.013Z,-0.52
2023-01-20T20:29:17.306Z,-0.56
2023-01-20T20:31:43.846Z,-0.59
2023-01-20T20:34:14.231Z,-0.62
2023-01-20T20:36:40.681Z,-0.62
2023-01-20T20:39:08.011Z,-0.63
2023-01-20T20:41:36.406Z,-0.62
2023-01-20T20:44:03.939Z,-0.64
2023-01-20T20:46:30.902Z,-0.67
2023-01-20T20:49:00.592Z,-0.67
2023-01-20T20:51:30.896Z,-0.72
2023-01-20T20:53:58.994Z,-0.74
2023-01-20T20:56:27.849Z,-0.76
2023-01-20T20:59:01.561Z,-0.78
2023-01-20T21:01:30.393Z,-0.80
2023-01-20T21:03:57.776Z,-0.82
2023-01-20T21:06:24.651Z,-0.83
2023-01-20T21:08:51.274Z,-0.84
2023-01-20T21:11:18.476Z,-0.85
2023-01-20T21:13:44.881Z,-0.85
2023-01-20T21:16:14.871Z,-0.87
2023-01-20T21:18:41.762Z,-0.90
2023-01-20T21:21:12.110Z,-0.94
2023-01-20T21:23:40.543Z,-0.95
2023-01-20T21:26:09.906Z,-0.96
2023-01-20T21:28:36.292Z,-0.96
2023-01-20T21:31:10.240Z,-0.95
2023-01-20T21:33:41.423Z,-0.97
2023-01-20T21:36:09.429Z,-1.00
2023-01-20T21:38:37.284Z,-1.00
2023-01-20T21:41:09.833Z,-0.97
2023-01-20T21:43:56.984Z,-0.97
2023-01-20T21:46:24.252Z,-0.97
2023-01-20T21:49:08.978Z,-0.96
2023-01-20T21:51:53.597Z,-0.94
2023-01-20T21:54:20.110Z,-0.95
2023-01-20T21:56:47.059Z,-0.96
2023-01-20T21:59:13.460Z,-0.96
2023-01-20T22:01:40.800Z,-0.96
2023-01-20T22:04:07.272Z,-0.98
2023-01-20T22:06:33.581Z,-0.97
2023-01-20T22:09:00.276Z,-0.96
2023-01-20T22:11:26.939Z,-0.97
2023-01-20T22:13:54.961Z,-0.98
2023-01-20T22:16:21.963Z,-0.99
2023-01-20T22:18:49.136Z,-1.01
2023-01-20T22:21:15.908Z,-1.00
2023-01-20T22:23:42.672Z,-1.02
2023-01-20T22:26:09.147Z,-1.01
2023-01-20T22:28:39.567Z,-1.01
2023-01-20T22:31:08.080Z,-1.03
2023-01-20T22:33:34.722Z,-1.02
2023-01-20T22:36:01.199Z,-1.00
2023-01-20T22:38:27.722Z,-0.99
2023-01-20T22:40:54.109Z,-0.97
2023-01-20T22:43:21.124Z,-0.97
2023-01-20T22:45:48.475Z,-0.96
2023-01-20T22:48:15.185Z,-0.94
2023-01-20T22:50:41.586Z,-0.91
2023-01-20T22:53:07.905Z,-0.94
2023-01-20T22:55:34.373Z,-0.88
2023-01-20T22:58:00.678Z,-0.86
2023-01-20T23:00:27.017Z,-0.87
2023-01-20T23:02:53.357Z,-0.87
2023-01-20T23:05:19.676Z,-0.91
2023-01-20T23:07:45.996Z,-0.90
2023-01-20T23:10:32.285Z,-0.91
2023-01-20T23:12:58.682Z,-0.90
2023-01-20T23:15:25.302Z,-0.90
2023-01-20T23:17:51.605Z,-0.92
2023-01-20T23:20:18.379Z,-0.94
2023-01-20T23:22:44.905Z,-0.94
2023-01-20T23:25:11.218Z,-0.93
2023-01-20T23:27:37.593Z,-0.92
2023-01-20T23:30:05.637Z,-0.94
2023-01-20T23:32:31.953Z,-0.96
2023-01-20T23:34:58.298Z,-0.98
2023-01-20T23:37:24.634Z,-0.98
2023-01-20T23:39:52.933Z,-1.00
2023-01-20T23:42:19.539Z,-0.99
2023-01-20T23:44:45.836Z,-1.00
2023-01-20T23:47:12.203Z,-1.00
2023-01-20T23:49:38.570Z,-1.02
2023-01-20T23:52:05.373Z,-1.03
2023-01-20T23:54:31.706Z,-1.03
2023-01-20T23:56:58.053Z,-1.02
2023-01-20T23:59:24.385Z,-1.03
